Time;durP1;ratioP1;P1;durP2;ratioP2;P2;SDS_P1;SDS_P2;PMS_P1;PMS_P2;Temp;Humidity;BMP_temperature;BMP_pressure;BME280_temperature;BME280_humidity;BME280_pressure;Samples;Min_cycle;Max_cycle;Signal;HPM_P1;HPM_P2
2021/09/09 00:01:53;;;;;;;5.28;4.03;;;20.00;75.90;;;;;;5053262;28;20220;-83
2021/09/09 00:04:25;;;;;;;4.85;4.20;;;20.00;75.90;;;;;;5069186;28;20172;-83
2021/09/09 00:06:51;;;;;;;5.15;4.20;;;19.90;75.80;;;;;;5019204;28;20238;-83
2021/09/09 00:09:21;;;;;;;5.70;4.68;;;20.00;75.90;;;;;;5052139;28;20686;-83
2021/09/09 00:11:52;;;;;;;6.13;4.22;;;20.00;75.90;;;;;;5019218;28;20185;-83
2021/09/09 00:14:18;;;;;;;4.70;3.85;;;20.00;76.00;;;;;;5034623;28;20560;-83
2021/09/09 00:16:48;;;;;;;4.45;4.00;;;19.90;75.90;;;;;;5069676;28;20165;-83
2021/09/09 00:19:14;;;;;;;5.68;4.18;;;19.90;76.00;;;;;;4999952;28;20201;-83
2021/09/09 00:21:42;;;;;;;5.75;4.22;;;19.90;76.00;;;;;;5050879;28;20258;-83
2021/09/09 00:24:07;;;;;;;5.28;4.35;;;19.90;76.00;;;;;;5052381;28;20237;-83
2021/09/09 00:26:33;;;;;;;5.13;4.35;;;19.90;75.70;;;;;;5036492;28;20184;-83
2021/09/09 00:28:59;;;;;;;4.68;4.03;;;19.90;75.80;;;;;;5053003;28;20169;-83
2021/09/09 00:31:25;;;;;;;4.90;3.85;;;19.90;76.00;;;;;;5069500;28;20177;-82
2021/09/09 00:33:51;;;;;;;4.60;4.15;;;19.90;76.00;;;;;;5052828;28;20180;-83
2021/09/09 00:36:18;;;;;;;4.95;3.78;;;19.90;76.00;;;;;;5053234;28;20169;-83
2021/09/09 00:38:46;;;;;;;4.57;4.10;;;19.90;76.00;;;;;;5018261;28;20277;-83
2021/09/09 00:41:11;;;;;;;4.97;4.43;;;19.90;76.00;;;;;;5068166;28;20295;-84
2021/09/09 00:43:38;;;;;;;4.97;4.10;;;19.90;76.10;;;;;;5035923;28;20185;-83
2021/09/09 00:46:04;;;;;;;4.75;4.20;;;19.90;76.10;;;;;;5053072;28;20154;-83
2021/09/09 00:48:34;;;;;;;4.97;4.15;;;19.80;75.80;;;;;;5069026;28;20228;-83
2021/09/09 00:51:03;;;;;;;5.78;4.68;;;19.90;75.80;;;;;;5018695;28;20199;-83
2021/09/09 00:53:34;;;;;;;5.22;4.40;;;19.90;76.10;;;;;;5048415;28;20189;-83
2021/09/09 00:56:02;;;;;;;4.32;3.92;;;19.90;76.10;;;;;;5014876;28;20692;-83
2021/09/09 00:58:28;;;;;;;4.75;4.25;;;19.90;76.10;;;;;;4998799;28;20189;-83
2021/09/09 01:00:54;;;;;;;4.90;4.00;;;19.90;76.10;;;;;;5047950;28;20544;-83
2021/09/09 01:03:19;;;;;;;4.78;4.00;;;19.90;76.10;;;;;;5048523;28;20150;-83
2021/09/09 01:05:46;;;;;;;4.82;4.18;;;19.90;76.10;;;;;;5032722;28;20166;-83
2021/09/09 01:08:13;;;;;;;5.20;4.28;;;19.90;76.10;;;;;;5047909;28;20242;-84
2021/09/09 01:10:40;;;;;;;5.55;4.32;;;19.90;76.10;;;;;;5048637;28;20162;-83
2021/09/09 01:13:13;;;;;;;5.18;4.28;;;19.90;76.20;;;;;;5032608;28;20174;-84
2021/09/09 01:15:41;;;;;;;5.55;4.65;;;19.90;76.10;;;;;;5048315;28;20211;-83
2021/09/09 01:18:10;;;;;;;5.50;4.55;;;19.90;76.20;;;;;;5048238;28;20222;-83
2021/09/09 01:20:36;;;;;;;5.22;4.30;;;19.80;76.10;;;;;;5048406;28;20196;-84
2021/09/09 01:23:02;;;;;;;5.03;4.53;;;19.90;76.30;;;;;;5048321;28;20162;-83
2021/09/09 01:25:29;;;;;;;5.00;4.50;;;19.90;76.30;;;;;;5031472;28;20188;-83
2021/09/09 01:27:57;;;;;;;5.05;4.10;;;19.90;76.20;;;;;;5048124;28;20173;-83
2021/09/09 01:30:26;;;;;;;4.90;4.32;;;19.90;76.20;;;;;;5014445;28;20535;-83
2021/09/09 01:32:52;;;;;;;6.43;4.93;;;19.90;76.20;;;;;;4981742;28;20185;-83
2021/09/09 01:35:21;;;;;;;5.75;4.85;;;19.90;76.30;;;;;;5048908;28;20164;-83
2021/09/09 01:37:49;;;;;;;5.47;4.60;;;19.80;76.30;;;;;;4997997;28;20182;-84
2021/09/09 01:40:28;;;;;;;6.25;4.38;;;19.80;76.30;;;;;;4997202;28;20243;-83
2021/09/09 01:42:58;;;;;;;6.30;4.72;;;19.90;76.40;;;;;;5030786;28;20177;-83
2021/09/09 01:45:26;;;;;;;5.82;4.50;;;19.90;76.40;;;;;;4982421;28;20641;-84
2021/09/09 01:47:54;;;;;;;6.00;4.57;;;19.80;76.30;;;;;;5001864;28;20182;-83
2021/09/09 01:50:25;;;;;;;5.07;4.35;;;19.80;76.40;;;;;;4974495;28;20186;-83
2021/09/09 01:52:53;;;;;;;5.72;4.75;;;19.80;76.30;;;;;;5022800;28;20236;-83
2021/09/09 01:55:28;;;;;;;6.07;4.95;;;19.80;76.30;;;;;;5014375;28;20186;-83
2021/09/09 01:57:56;;;;;;;5.70;4.65;;;19.90;76.30;;;;;;5019308;28;20178;-83
2021/09/09 02:00:23;;;;;;;5.90;4.97;;;19.80;76.10;;;;;;5007076;28;20207;-84
2021/09/09 02:02:48;;;;;;;5.72;4.57;;;19.80;76.10;;;;;;5047584;28;20166;-83
2021/09/09 02:05:15;;;;;;;4.85;4.15;;;19.80;76.10;;;;;;5014543;28;20177;-83
2021/09/09 02:07:41;;;;;;;5.03;4.30;;;19.80;76.10;;;;;;5031056;28;20205;-84
2021/09/09 02:10:08;;;;;;;5.43;4.38;;;19.80;76.10;;;;;;5031344;28;20180;-83
2021/09/09 02:12:34;;;;;;;5.50;4.32;;;19.80;76.10;;;;;;5014003;28;20181;-83
2021/09/09 02:15:01;;;;;;;5.97;4.75;;;19.80;76.20;;;;;;5014742;28;20162;-83
2021/09/09 02:17:27;;;;;;;5.68;4.60;;;19.80;76.30;;;;;;5030973;28;20153;-83
2021/09/09 02:19:54;;;;;;;5.00;4.18;;;19.80;76.20;;;;;;5014486;28;20166;-83
2021/09/09 02:22:22;;;;;;;5.80;4.57;;;19.80;76.20;;;;;;5046941;28;20205;-83
2021/09/09 02:24:53;;;;;;;5.20;4.45;;;19.80;76.10;;;;;;5030019;28;20197;-83
2021/09/09 02:27:23;;;;;;;5.53;4.60;;;19.80;76.20;;;;;;5014108;28;20178;-83
2021/09/09 02:29:51;;;;;;;5.32;4.40;;;19.80;76.20;;;;;;4998136;28;20182;-83
2021/09/09 02:32:17;;;;;;;5.53;4.50;;;19.80;76.20;;;;;;5014251;28;20189;-83
2021/09/09 02:34:42;;;;;;;5.47;4.30;;;19.80;76.10;;;;;;5031243;28;20613;-83
2021/09/09 02:37:09;;;;;;;5.50;4.30;;;19.80;76.20;;;;;;5048050;28;20629;-84
2021/09/09 02:39:36;;;;;;;5.00;4.20;;;19.80;76.20;;;;;;5014754;28;20170;-83
2021/09/09 02:42:07;;;;;;;5.63;4.38;;;19.80;76.10;;;;;;5015434;28;20217;-83
2021/09/09 02:44:33;;;;;;;4.70;4.20;;;19.80;76.10;;;;;;4997318;28;20177;-83
2021/09/09 02:47:03;;;;;;;5.53;4.32;;;19.80;76.10;;;;;;5030587;28;20154;-83
2021/09/09 02:49:30;;;;;;;4.88;4.28;;;19.80;76.10;;;;;;5013115;28;20173;-84
2021/09/09 02:51:56;;;;;;;5.07;4.10;;;19.80;76.10;;;;;;4985047;28;20296;-83
2021/09/09 02:54:21;;;;;;;5.45;4.35;;;19.70;76.10;;;;;;5043439;28;20178;-84
2021/09/09 02:56:51;;;;;;;5.03;4.40;;;19.80;76.10;;;;;;5049842;28;20169;-83
2021/09/09 02:59:20;;;;;;;5.32;4.40;;;19.70;76.10;;;;;;5050643;28;20172;-83
2021/09/09 03:01:48;;;;;;;4.72;4.22;;;19.70;76.10;;;;;;5050525;28;20204;-83
2021/09/09 03:04:14;;;;;;;4.82;4.30;;;19.80;76.20;;;;;;5034939;28;20170;-83
2021/09/09 03:06:40;;;;;;;6.00;4.28;;;19.80;76.20;;;;;;5034452;28;20170;-83
2021/09/09 03:09:10;;;;;;;4.85;4.13;;;19.80;76.10;;;;;;5050709;28;20158;-83
2021/09/09 03:11:40;;;;;;;5.95;4.38;;;19.80;76.10;;;;;;5016592;28;20196;-83
2021/09/09 03:14:08;;;;;;;4.60;4.10;;;19.80;76.10;;;;;;5033576;28;20189;-84
2021/09/09 03:16:37;;;;;;;4.97;4.10;;;19.80;76.10;;;;;;5016986;28;20204;-83
2021/09/09 03:19:03;;;;;;;5.40;4.32;;;19.70;76.00;;;;;;5030508;28;20182;-83
2021/09/09 03:21:29;;;;;;;5.05;4.40;;;19.80;76.10;;;;;;5047498;28;20200;-84
2021/09/09 03:23:57;;;;;;;5.03;4.22;;;19.70;76.00;;;;;;5068729;28;20180;-83
2021/09/09 03:26:24;;;;;;;5.05;4.32;;;19.70;76.00;;;;;;5053770;28;20158;-83
2021/09/09 03:28:50;;;;;;;5.80;4.30;;;19.80;76.80;;;;;;5037149;28;20249;-83
2021/09/09 03:31:15;;;;;;;4.88;4.05;;;19.80;76.00;;;;;;5054798;28;20161;-83
2021/09/09 03:33:42;;;;;;;5.18;4.38;;;19.80;76.10;;;;;;5037836;28;20173;-83
2021/09/09 03:36:08;;;;;;;4.65;4.15;;;19.80;76.00;;;;;;5070723;28;20180;-83
2021/09/09 03:38:38;;;;;;;4.22;3.83;;;19.70;76.00;;;;;;5037660;28;20169;-84
2021/09/09 03:41:03;;;;;;;5.00;4.28;;;19.70;75.90;;;;;;5053707;28;20288;-83
2021/09/09 03:43:30;;;;;;;4.88;4.35;;;19.70;76.00;;;;;;5053670;28;20577;-83
2021/09/09 03:45:57;;;;;;;5.05;4.47;;;19.70;76.00;;;;;;5054244;28;20157;-83
2021/09/09 03:48:28;;;;;;;4.85;4.15;;;19.70;76.20;;;;;;5037820;28;20172;-83
2021/09/09 03:50:59;;;;;;;5.82;4.75;;;19.80;76.30;;;;;;5042065;28;20184;-83
2021/09/09 03:53:28;;;;;;;5.20;4.38;;;19.70;77.00;;;;;;5016951;28;20229;-83
2021/09/09 03:55:59;;;;;;;6.15;4.68;;;19.70;76.30;;;;;;5001300;28;20212;-84
2021/09/09 03:58:27;;;;;;;4.88;3.97;;;19.70;76.10;;;;;;5001326;28;20182;-83
2021/09/09 04:00:55;;;;;;;4.78;4.20;;;19.60;76.30;;;;;;5069943;28;20185;-83
2021/09/09 04:03:21;;;;;;;4.72;3.92;;;19.70;76.10;;;;;;5071010;28;20158;-84
2021/09/09 04:05:49;;;;;;;5.38;4.35;;;19.80;76.20;;;;;;5037440;28;20508;-83
2021/09/09 04:08:16;;;;;;;5.88;4.60;;;19.70;76.30;;;;;;5070985;28;20165;-83
2021/09/09 04:10:42;;;;;;;4.97;4.40;;;19.70;76.30;;;;;;5053896;28;20165;-83
2021/09/09 04:13:09;;;;;;;5.78;4.50;;;19.70;76.30;;;;;;5037340;28;20252;-83
2021/09/09 04:15:35;;;;;;;5.47;4.35;;;19.70;76.30;;;;;;5053553;28;20153;-83
2021/09/09 04:18:00;;;;;;;5.05;4.22;;;19.70;76.20;;;;;;5053979;28;20527;-83
2021/09/09 04:20:30;;;;;;;5.30;4.22;;;19.70;76.20;;;;;;5054013;28;20545;-83
2021/09/09 04:22:56;;;;;;;5.38;4.15;;;19.70;76.40;;;;;;5053875;28;20223;-83
2021/09/09 04:25:22;;;;;;;5.13;4.20;;;19.70;75.60;;;;;;5053711;28;20153;-83
2021/09/09 04:27:52;;;;;;;4.97;4.10;;;19.70;75.60;;;;;;5069550;28;20158;-83
2021/09/09 04:30:20;;;;;;;5.13;4.25;;;19.70;75.70;;;;;;5016644;28;20186;-83
2021/09/09 04:32:48;;;;;;;5.32;4.45;;;19.50;75.60;;;;;;5018795;28;20189;-83
2021/09/09 04:35:20;;;;;;;4.75;3.90;;;19.50;76.50;;;;;;5031814;28;20186;-83
2021/09/09 04:37:51;;;;;;;4.40;4.00;;;19.50;75.90;;;;;;5020073;28;20261;-83
2021/09/09 04:40:18;;;;;;;4.80;3.83;;;19.50;76.00;;;;;;5016237;28;20198;-83
2021/09/09 04:42:46;;;;;;;4.70;4.10;;;19.40;76.00;;;;;;5019731;28;20628;-83
2021/09/09 04:45:15;;;;;;;5.10;3.90;;;19.40;76.10;;;;;;5034435;28;20266;-84
2021/09/09 04:47:42;;;;;;;5.00;4.10;;;19.40;76.30;;;;;;5008992;28;20183;-82
2021/09/09 04:50:10;;;;;;;5.85;4.50;;;19.40;76.30;;;;;;4991987;28;20214;-82
2021/09/09 04:52:40;;;;;;;4.68;3.88;;;19.40;76.40;;;;;;4948004;28;20241;-82
2021/09/09 04:55:07;;;;;;;5.05;4.22;;;19.30;76.30;;;;;;4941193;28;20758;-82
2021/09/09 04:57:34;;;;;;;5.10;4.30;;;19.30;76.50;;;;;;4990266;28;20191;-82
2021/09/09 05:00:04;;;;;;;5.15;4.18;;;19.30;76.50;;;;;;4972996;28;20208;-82
2021/09/09 05:02:35;;;;;;;4.38;3.75;;;19.20;76.60;;;;;;4973315;28;20176;-82
2021/09/09 05:05:06;;;;;;;5.13;4.20;;;19.30;76.70;;;;;;4956596;28;20180;-82
2021/09/09 05:07:37;;;;;;;5.28;3.80;;;19.30;76.70;;;;;;4942002;28;20211;-82
2021/09/09 05:10:05;;;;;;;5.03;4.13;;;19.30;76.70;;;;;;4958042;28;20184;-82
2021/09/09 05:12:32;;;;;;;5.38;4.25;;;19.30;76.80;;;;;;5005925;28;20184;-82
2021/09/09 05:14:59;;;;;;;5.32;4.57;;;19.20;76.80;;;;;;5005577;28;20176;-82
2021/09/09 05:17:24;;;;;;;5.00;4.10;;;19.30;76.80;;;;;;4973334;28;20187;-82
2021/09/09 05:19:55;;;;;;;5.95;4.28;;;19.30;76.80;;;;;;4988794;28;20168;-82
2021/09/09 05:22:24;;;;;;;5.50;4.60;;;19.30;76.70;;;;;;4955947;28;20183;-82
2021/09/09 05:24:52;;;;;;;4.97;3.95;;;19.30;76.70;;;;;;4955933;28;20190;-83
2021/09/09 05:27:22;;;;;;;5.57;4.47;;;19.30;76.60;;;;;;4971704;28;20184;-83
2021/09/09 05:29:49;;;;;;;5.93;4.60;;;19.30;76.70;;;;;;4976494;28;20242;-83
2021/09/09 05:32:19;;;;;;;5.68;4.35;;;19.30;76.60;;;;;;5009608;28;20190;-83
2021/09/09 05:34:47;;;;;;;5.90;4.63;;;19.40;76.50;;;;;;5031390;28;20169;-83
2021/09/09 05:37:13;;;;;;;5.28;4.20;;;19.40;76.50;;;;;;4974565;28;20180;-83
2021/09/09 05:39:38;;;;;;;5.68;4.43;;;19.40;76.50;;;;;;5031691;28;20181;-84
2021/09/09 05:42:07;;;;;;;5.55;4.55;;;19.40;76.50;;;;;;5014657;28;20229;-82
2021/09/09 05:44:34;;;;;;;6.05;4.70;;;19.40;76.40;;;;;;5029961;28;20655;-83
2021/09/09 05:47:04;;;;;;;5.88;4.40;;;19.40;77.20;;;;;;5030203;28;20169;-82
2021/09/09 05:49:31;;;;;;;5.32;4.38;;;19.40;76.50;;;;;;4968533;28;20189;-84
2021/09/09 05:51:56;;;;;;;5.82;4.55;;;19.40;76.40;;;;;;5020260;28;20593;-83
2021/09/09 05:54:25;;;;;;;5.72;4.47;;;19.40;76.40;;;;;;5084248;28;20177;-83
2021/09/09 05:56:55;;;;;;;5.55;4.40;;;19.40;76.40;;;;;;5031732;28;20177;-83
2021/09/09 05:59:21;;;;;;;5.63;4.50;;;19.40;76.30;;;;;;5066442;28;20157;-83
2021/09/09 06:01:49;;;;;;;6.07;4.80;;;19.40;76.30;;;;;;5084789;28;20224;-83
2021/09/09 06:04:18;;;;;;;5.80;4.68;;;19.50;76.20;;;;;;5033934;28;20165;-83
2021/09/09 06:06:43;;;;;;;5.78;4.70;;;19.50;76.20;;;;;;5049642;28;20157;-82
2021/09/09 06:09:09;;;;;;;6.30;4.75;;;19.40;76.10;;;;;;5033709;28;20233;-83
2021/09/09 06:11:36;;;;;;;6.03;4.60;;;19.40;76.10;;;;;;5033649;28;20237;-83
2021/09/09 06:14:01;;;;;;;6.07;4.18;;;19.40;76.10;;;;;;5062722;28;20195;-82
2021/09/09 06:16:27;;;;;;;5.68;4.55;;;19.50;76.10;;;;;;5032808;28;20173;-82
2021/09/09 06:18:53;;;;;;;5.68;4.57;;;19.50;76.10;;;;;;5047301;28;20213;-83
2021/09/09 06:21:19;;;;;;;5.90;4.80;;;19.40;76.00;;;;;;5048420;28;20185;-84
2021/09/09 06:23:44;;;;;;;5.18;4.35;;;19.50;76.00;;;;;;5030917;28;20196;-83
2021/09/09 06:26:10;;;;;;;6.15;4.82;;;19.50;76.00;;;;;;5031534;28;20268;-84
2021/09/09 06:28:37;;;;;;;6.13;4.95;;;19.50;76.00;;;;;;5064371;28;20642;-83
2021/09/09 06:31:03;;;;;;;6.32;4.90;;;19.50;76.00;;;;;;5010711;28;20715;-83
2021/09/09 06:33:30;;;;;;;7.07;5.13;;;19.50;76.10;;;;;;5026176;28;20177;-83
2021/09/09 06:35:56;;;;;;;6.55;5.07;;;19.50;76.10;;;;;;5026548;28;20190;-83
2021/09/09 06:38:23;;;;;;;5.70;4.80;;;19.50;76.10;;;;;;5009593;28;20182;-83
2021/09/09 06:40:55;;;;;;;5.63;4.78;;;19.50;76.10;;;;;;5010745;28;20221;-83
2021/09/09 06:43:24;;;;;;;6.57;5.15;;;19.50;76.10;;;;;;4993774;28;20174;-84
2021/09/09 06:45:50;;;;;;;8.32;5.40;;;19.50;76.10;;;;;;5026160;28;20178;-84
2021/09/09 06:48:19;;;;;;;6.90;5.30;;;19.50;76.30;;;;;;5063572;28;20208;-84
2021/09/09 06:50:49;;;;;;;6.75;5.32;;;19.50;76.10;;;;;;5012593;28;20188;-84
2021/09/09 06:53:20;;;;;;;7.10;5.45;;;19.60;76.30;;;;;;5026627;28;20234;-84
2021/09/09 06:55:49;;;;;;;7.30;5.55;;;19.50;76.10;;;;;;5023503;28;20187;-85
2021/09/09 06:58:18;;;;;;;7.05;5.30;;;19.50;76.20;;;;;;5007609;28;20196;-84
2021/09/09 07:00:47;;;;;;;6.95;5.20;;;19.50;76.30;;;;;;5009289;28;20198;-85
2021/09/09 07:10:02;;;;;;;6.70;5.55;;;19.50;76.40;;;;;;4930959;29;20186;-88
2021/09/09 07:13:07;;;;;;;8.98;5.50;;;19.50;76.40;;;;;;4907280;29;20186;-87
2021/09/09 07:15:48;;;;;;;7.13;5.43;;;19.50;76.40;;;;;;4934983;29;20679;-90
2021/09/09 07:18:45;;;;;;;6.90;5.50;;;19.50;76.50;;;;;;4888747;29;20242;-88
2021/09/09 07:21:49;;;;;;;7.38;5.88;;;19.50;76.50;;;;;;4876724;29;20229;-88
2021/09/09 07:24:33;;;;;;;7.28;5.68;;;19.50;76.50;;;;;;4900764;29;20178;-88
2021/09/09 07:27:00;;;;;;;6.63;5.25;;;19.50;76.60;;;;;;4905877;29;20183;-84
2021/09/09 07:29:33;;;;;;;8.02;5.95;;;19.40;76.50;;;;;;4923142;29;20198;-89
2021/09/09 07:32:18;;;;;;;8.25;6.07;;;19.50;76.60;;;;;;4903776;29;20215;-87
2021/09/09 07:34:46;;;;;;;7.15;5.45;;;19.50;76.70;;;;;;4872535;29;20183;-87
2021/09/09 07:37:13;;;;;;;6.85;5.22;;;19.50;76.70;;;;;;4885378;29;20196;-85
2021/09/09 07:39:46;;;;;;;7.75;6.20;;;19.50;76.60;;;;;;4886556;29;20677;-85
2021/09/09 07:42:13;;;;;;;7.85;6.25;;;19.50;76.70;;;;;;4889951;29;20288;-84
2021/09/09 07:45:10;;;;;;;7.35;5.95;;;19.60;76.70;;;;;;4904991;29;20193;-83
2021/09/09 07:47:40;;;;;;;7.82;5.95;;;19.50;76.50;;;;;;4981765;28;20561;-84
2021/09/09 07:53:29;;;;;;;8.98;6.38;;;19.50;76.60;;;;;;5055354;28;20305;-83
2021/09/09 07:55:56;;;;;;;9.00;5.90;;;19.60;76.60;;;;;;5023408;28;20221;-86
2021/09/09 07:58:22;;;;;;;9.07;6.50;;;19.60;76.40;;;;;;4988156;28;20178;-83
2021/09/09 08:00:49;;;;;;;9.07;6.40;;;19.60;76.30;;;;;;5037995;28;20637;-83
2021/09/09 08:03:18;;;;;;;8.95;6.20;;;19.70;76.30;;;;;;5058068;28;20218;-82
2021/09/09 08:05:45;;;;;;;8.35;6.03;;;19.60;76.20;;;;;;5009019;28;20606;-85
2021/09/09 08:08:15;;;;;;;7.00;5.82;;;19.60;76.00;;;;;;5043811;28;20155;-80
2021/09/09 08:10:44;;;;;;;7.95;5.90;;;19.70;75.90;;;;;;5008621;28;20182;-79
2021/09/09 08:13:10;;;;;;;8.20;5.75;;;19.70;75.90;;;;;;5061219;28;20165;-81
2021/09/09 08:15:37;;;;;;;8.13;6.50;;;19.70;76.20;;;;;;5062771;28;20254;-84
2021/09/09 08:18:07;;;;;;;9.57;6.50;;;19.70;75.90;;;;;;5084084;28;20176;-82
2021/09/09 08:20:34;;;;;;;8.45;5.53;;;19.70;75.70;;;;;;5026885;28;20237;-85
2021/09/09 08:23:00;;;;;;;7.72;6.20;;;19.70;75.70;;;;;;5081807;28;20249;-83
2021/09/09 08:25:30;;;;;;;8.25;6.28;;;19.70;75.80;;;;;;5061784;28;20193;-81
2021/09/09 08:28:00;;;;;;;7.25;5.55;;;19.70;75.50;;;;;;5023414;28;20186;-82
2021/09/09 08:30:26;;;;;;;7.38;5.80;;;19.70;75.40;;;;;;4990551;28;20190;-81
2021/09/09 08:32:56;;;;;;;7.93;5.80;;;19.80;75.50;;;;;;5047985;28;20177;-82
2021/09/09 08:35:24;;;;;;;7.35;5.78;;;19.80;75.60;;;;;;5023664;28;20193;-81
2021/09/09 08:37:54;;;;;;;8.18;6.00;;;19.80;75.30;;;;;;5060068;28;20176;-80
2021/09/09 08:40:22;;;;;;;7.45;6.25;;;19.80;75.50;;;;;;5007420;28;20201;-84
2021/09/09 08:42:48;;;;;;;7.00;5.57;;;19.80;75.40;;;;;;5044413;28;20658;-81
2021/09/09 08:45:14;;;;;;;7.50;5.97;;;19.90;75.20;;;;;;5043688;28;20168;-84
2021/09/09 08:47:41;;;;;;;7.28;5.78;;;19.90;74.90;;;;;;5060377;28;20165;-80
2021/09/09 08:50:08;;;;;;;8.73;6.30;;;19.90;75.00;;;;;;5059767;28;20154;-82
2021/09/09 08:52:33;;;;;;;7.85;6.20;;;19.90;74.90;;;;;;5058515;28;20577;-84
2021/09/09 08:54:59;;;;;;;7.80;5.82;;;19.90;74.80;;;;;;5059012;28;20162;-83
2021/09/09 08:57:32;;;;;;;9.07;6.22;;;19.90;75.00;;;;;;5043716;28;20188;-84
2021/09/09 09:00:03;;;;;;;8.35;6.43;;;19.90;75.00;;;;;;5007418;28;20179;-82
2021/09/09 09:02:29;;;;;;;7.70;6.15;;;20.00;75.00;;;;;;5007796;28;20276;-80
2021/09/09 09:05:10;;;;;;;8.40;6.22;;;20.00;74.80;;;;;;5060502;28;20540;-81
2021/09/09 09:07:41;;;;;;;8.40;6.35;;;20.00;74.50;;;;;;5062506;28;20150;-81
2021/09/09 09:10:11;;;;;;;7.32;6.18;;;20.10;74.80;;;;;;5024875;28;20655;-81
2021/09/09 09:12:40;;;;;;;7.53;6.15;;;20.00;74.50;;;;;;5027398;28;20190;-82
2021/09/09 09:15:22;;;;;;;9.98;6.45;;;20.10;74.40;;;;;;5060238;28;20161;-79
2021/09/09 09:17:58;;;;;;;8.38;6.45;;;20.00;74.20;;;;;;5061625;28;20231;-82
2021/09/09 09:20:40;;;;;;;7.30;5.63;;;20.10;74.10;;;;;;5061294;28;20219;-81
2021/09/09 09:23:20;;;;;;;7.53;5.80;;;20.10;74.00;;;;;;5027708;28;20182;-84
2021/09/09 09:25:59;;;;;;;7.50;6.15;;;20.10;74.30;;;;;;5060971;28;20161;-80
2021/09/09 09:28:42;;;;;;;6.22;5.30;;;20.10;73.80;;;;;;5080247;28;20592;-80
2021/09/09 09:31:11;;;;;;;7.63;5.65;;;20.10;74.30;;;;;;5058187;28;20177;-80
2021/09/09 09:33:47;;;;;;;7.63;6.00;;;20.10;74.00;;;;;;5060163;28;20601;-79
2021/09/09 09:36:15;;;;;;;7.07;5.95;;;20.10;73.50;;;;;;5026060;28;20192;-81
2021/09/09 09:38:45;;;;;;;7.20;5.53;;;20.20;73.60;;;;;;5043101;28;20204;-82
2021/09/09 09:41:11;;;;;;;7.82;5.95;;;20.20;73.10;;;;;;5022522;28;20209;-81
2021/09/09 09:43:37;;;;;;;7.15;5.72;;;20.20;73.50;;;;;;5058339;28;20609;-81
2021/09/09 09:46:05;;;;;;;8.65;6.10;;;20.20;73.50;;;;;;5080488;28;20154;-80
2021/09/09 09:48:33;;;;;;;8.38;6.38;;;20.20;73.40;;;;;;5051609;28;20241;-78
2021/09/09 09:51:02;;;;;;;6.90;5.70;;;20.20;73.30;;;;;;5046347;28;20162;-78
2021/09/09 09:53:32;;;;;;;6.97;5.57;;;20.20;73.20;;;;;;5047828;28;20217;-79
2021/09/09 09:55:58;;;;;;;8.30;6.40;;;20.30;73.30;;;;;;5047790;28;20193;-78
2021/09/09 09:58:39;;;;;;;7.40;6.13;;;20.30;73.20;;;;;;5065889;28;20158;-78
2021/09/09 10:01:12;;;;;;;6.80;5.75;;;20.30;73.00;;;;;;5026318;28;20220;-79
2021/09/09 10:03:52;;;;;;;7.85;6.05;;;20.20;73.30;;;;;;5043465;28;20201;-79
2021/09/09 10:06:23;;;;;;;6.95;5.50;;;20.20;73.50;;;;;;5011016;28;20232;-82
2021/09/09 10:08:54;;;;;;;8.10;6.15;;;20.20;73.60;;;;;;5044598;28;20184;-82
2021/09/09 10:11:26;;;;;;;7.50;5.90;;;20.20;73.50;;;;;;4992219;28;20197;-80
2021/09/09 10:13:57;;;;;;;7.28;5.72;;;20.20;73.40;;;;;;5025035;28;20182;-80
2021/09/09 10:16:29;;;;;;;7.03;5.80;;;20.30;73.00;;;;;;4990862;28;20649;-82
2021/09/09 10:19:00;;;;;;;7.50;5.93;;;20.30;73.30;;;;;;5007486;28;20208;-78
2021/09/09 10:21:42;;;;;;;8.07;6.30;;;20.30;73.00;;;;;;5003062;28;20206;-79
2021/09/09 10:24:18;;;;;;;10.05;6.13;;;20.30;73.10;;;;;;5019521;28;20150;-82
2021/09/09 10:26:48;;;;;;;7.20;5.57;;;20.30;73.80;;;;;;5020657;28;20158;-85
2021/09/09 10:29:50;;;;;;;7.78;6.18;;;20.30;73.00;;;;;;4985157;28;20179;-83
2021/09/09 10:32:50;;;;;;;7.05;5.68;;;20.40;72.90;;;;;;5017444;28;20178;-83
2021/09/09 10:35:29;;;;;;;7.70;5.88;;;20.30;72.90;;;;;;5019217;28;20186;-80
2021/09/09 10:38:17;;;;;;;7.70;5.97;;;20.40;73.00;;;;;;5036713;28;20680;-82
2021/09/09 10:40:44;;;;;;;6.30;5.43;;;20.40;72.90;;;;;;5030812;28;20316;-81
2021/09/09 10:43:12;;;;;;;7.60;6.00;;;20.40;72.90;;;;;;5055538;28;20161;-83
2021/09/09 10:45:40;;;;;;;8.52;5.93;;;20.40;72.50;;;;;;5041599;28;20181;-82
2021/09/09 10:48:22;;;;;;;8.15;6.03;;;20.40;72.60;;;;;;5059326;28;20554;-81
2021/09/09 10:51:12;;;;;;;7.43;6.10;;;20.40;73.20;;;;;;5008829;28;20654;-82
2021/09/09 10:53:40;;;;;;;7.13;6.07;;;20.40;73.30;;;;;;5055653;28;20264;-83
2021/09/09 10:56:14;;;;;;;7.82;6.25;;;20.50;72.70;;;;;;5073296;28;20336;-81
2021/09/09 10:58:40;;;;;;;6.38;5.45;;;20.50;72.20;;;;;;5056036;28;20157;-83
2021/09/09 11:01:06;;;;;;;8.73;6.25;;;20.50;72.90;;;;;;5073683;28;20192;-81
2021/09/09 11:03:43;;;;;;;8.40;5.82;;;20.50;72.40;;;;;;5042477;28;20165;-84
2021/09/09 11:06:15;;;;;;;5.90;5.30;;;20.50;72.10;;;;;;5057937;28;20675;-83
2021/09/09 11:08:42;;;;;;;8.30;5.88;;;20.40;72.40;;;;;;5054823;28;20169;-84
2021/09/09 11:11:14;;;;;;;8.23;5.78;;;20.40;72.90;;;;;;5057410;28;20178;-83
2021/09/09 11:13:40;;;;;;;7.45;5.68;;;20.40;72.90;;;;;;5076381;28;20154;-80
2021/09/09 11:16:21;;;;;;;6.57;5.32;;;20.30;73.40;;;;;;5049864;28;20181;-83
2021/09/09 11:18:48;;;;;;;6.88;5.53;;;20.30;73.00;;;;;;5056364;28;20169;-82
2021/09/09 11:21:17;;;;;;;7.85;5.80;;;20.30;73.30;;;;;;5004876;28;20190;-80
2021/09/09 11:23:44;;;;;;;7.80;5.63;;;20.30;73.40;;;;;;5020759;28;20159;-80
2021/09/09 11:26:11;;;;;;;6.90;5.60;;;20.40;73.20;;;;;;5038843;28;20172;-81
2021/09/09 11:28:37;;;;;;;7.05;5.22;;;20.30;73.30;;;;;;5022730;28;20189;-83
2021/09/09 11:31:08;;;;;;;6.55;5.38;;;20.30;73.20;;;;;;5019495;28;20171;-81
2021/09/09 11:33:53;;;;;;;7.45;5.70;;;20.30;73.20;;;;;;5032064;28;20165;-83
2021/09/09 11:36:26;;;;;;;7.35;5.85;;;20.30;73.00;;;;;;5022196;28;20235;-83
2021/09/09 11:38:54;;;;;;;7.70;5.78;;;20.40;73.30;;;;;;5040176;28;20175;-83
2021/09/09 11:41:21;;;;;;;7.63;5.95;;;20.40;73.10;;;;;;5018621;28;20645;-82
2021/09/09 11:43:51;;;;;;;7.97;5.88;;;20.40;72.90;;;;;;5042233;28;20161;-84
2021/09/09 11:46:29;;;;;;;8.45;6.00;;;20.50;72.70;;;;;;5061122;28;20181;-82
2021/09/09 11:48:56;;;;;;;7.40;5.70;;;20.50;72.70;;;;;;5048497;28;20174;-84
2021/09/09 11:51:33;;;;;;;9.73;5.97;;;20.50;72.80;;;;;;5041039;28;20162;-82
2021/09/09 11:53:59;;;;;;;6.45;5.53;;;20.50;72.80;;;;;;5039274;28;20336;-81
2021/09/09 11:56:25;;;;;;;6.68;5.55;;;20.50;72.80;;;;;;5039538;28;20146;-81
2021/09/09 11:58:53;;;;;;;8.35;5.93;;;20.60;72.50;;;;;;5041204;28;20157;-82
2021/09/09 12:01:19;;;;;;;8.25;5.50;;;20.60;72.50;;;;;;5029306;28;20263;-81
2021/09/09 12:03:45;;;;;;;7.53;6.03;;;20.60;72.40;;;;;;5042192;28;20169;-84
2021/09/09 12:06:16;;;;;;;8.00;5.88;;;20.60;72.40;;;;;;5063281;28;20235;-81
2021/09/09 12:08:44;;;;;;;7.70;5.68;;;20.60;72.20;;;;;;5043204;28;20596;-82
2021/09/09 12:11:11;;;;;;;7.05;5.43;;;20.50;72.40;;;;;;5027735;28;20170;-83
2021/09/09 12:13:39;;;;;;;9.80;5.85;;;20.50;73.20;;;;;;5046549;28;20170;-82
2021/09/09 12:16:22;;;;;;;9.43;5.47;;;20.50;72.90;;;;;;5012790;28;20169;-82
2021/09/09 12:19:01;;;;;;;7.18;5.80;;;20.50;72.80;;;;;;5044388;28;20165;-83
2021/09/09 12:21:28;;;;;;;7.20;5.85;;;20.40;72.80;;;;;;5025729;28;20675;-84
2021/09/09 12:23:59;;;;;;;9.00;6.05;;;20.50;73.00;;;;;;5036270;28;20203;-80
2021/09/09 12:26:25;;;;;;;7.25;5.63;;;20.60;73.30;;;;;;5002164;28;20217;-82
2021/09/09 12:28:53;;;;;;;8.90;5.88;;;20.70;72.40;;;;;;5044267;28;20280;-81
2021/09/09 12:31:32;;;;;;;8.43;5.85;;;20.70;73.30;;;;;;5009154;28;20206;-81
2021/09/09 12:33:58;;;;;;;6.97;5.78;;;20.80;72.00;;;;;;5033644;28;20516;-82
2021/09/09 12:36:24;;;;;;;8.13;5.65;;;20.80;71.90;;;;;;5004777;28;20598;-82
2021/09/09 12:38:58;;;;;;;8.43;5.68;;;20.80;71.60;;;;;;5040958;28;20174;-81
2021/09/09 12:41:33;;;;;;;7.07;5.68;;;20.70;71.80;;;;;;5020806;28;20208;-83
2021/09/09 12:44:32;;;;;;;11.75;5.15;;;20.70;72.10;;;;;;5014568;28;20240;-82
2021/09/09 12:47:15;;;;;;;7.70;5.80;;;20.70;72.30;;;;;;5021536;28;20174;-82
2021/09/09 12:49:42;;;;;;;9.57;5.53;;;20.70;72.70;;;;;;5019030;28;20183;-82
2021/09/09 12:52:10;;;;;;;7.38;5.78;;;20.70;72.40;;;;;;5034261;28;20166;-81
2021/09/09 12:54:40;;;;;;;8.02;5.70;;;20.70;72.90;;;;;;5019882;28;20162;-81
2021/09/09 12:57:06;;;;;;;8.10;5.57;;;20.70;72.40;;;;;;5019766;28;20178;-84
2021/09/09 12:59:32;;;;;;;8.25;6.07;;;20.70;72.40;;;;;;5020929;28;20168;-82
2021/09/09 13:01:57;;;;;;;7.00;5.72;;;20.70;72.70;;;;;;5020328;28;20284;-82
2021/09/09 13:04:23;;;;;;;8.10;5.88;;;20.70;72.50;;;;;;5020313;28;20189;-83
2021/09/09 13:06:49;;;;;;;6.60;5.32;;;20.80;72.60;;;;;;5020465;28;20146;-83
2021/09/09 13:09:18;;;;;;;6.88;5.70;;;20.70;72.10;;;;;;5055022;28;20157;-81
2021/09/09 13:11:44;;;;;;;6.63;5.30;;;20.80;72.50;;;;;;5054630;28;20304;-83